Terminal Aerodrome Forecast
Issued by NWS

Home | Current Version | Previous Version | Text Only | Print | Product List | Glossary On
Versions: 1 2 3 4 5 6 7 8 9 10 11 12 13 14 15 16 17 18
000
FTUS46 KSGX 201100
TAFSNA
TAF
KSNA 201129Z 2012/2112 14005KT P6SM BKN025
     FM201700 21010KT P6SM SCT100
     FM210300 20005KT P6SM SCT018
     FM210500 VRB04KT P6SM BKN015=

USA.gov is the U.S. government's official web portal to all federal, state and local government web resources and services.